createdAt,value
2017-08-29T00:01:53.873Z,90.10
2017-08-29T00:04:21.427Z,90.10
2017-08-29T00:06:49.751Z,90.00
2017-08-29T00:09:18.088Z,90.10
2017-08-29T00:11:46.404Z,90.10
2017-08-29T00:14:13.976Z,90.10
2017-08-29T00:16:42.303Z,90.10
2017-08-29T00:19:10.639Z,89.90
2017-08-29T00:21:38.958Z,90.10
2017-08-29T00:24:07.290Z,90.10
2017-08-29T00:26:35.624Z,90.10
2017-08-29T00:29:03.956Z,90.10
2017-08-29T00:31:32.278Z,90.00
2017-08-29T00:34:00.620Z,90.00
2017-08-29T00:36:28.940Z,90.00
2017-08-29T00:38:57.275Z,90.00
2017-08-29T00:41:25.591Z,90.00
2017-08-29T00:43:53.932Z,90.00
2017-08-29T00:46:22.257Z,90.00
2017-08-29T00:48:50.604Z,90.00
2017-08-29T00:51:18.954Z,90.00
2017-08-29T00:53:47.271Z,90.00
2017-08-29T00:56:15.610Z,90.00
2017-08-29T00:58:43.931Z,89.90
2017-08-29T01:01:12.275Z,89.90
2017-08-29T01:03:39.831Z,89.90
2017-08-29T01:06:08.179Z,90.10
2017-08-29T01:08:36.495Z,90.10
2017-08-29T01:11:04.827Z,90.20
2017-08-29T01:13:32.381Z,90.50
2017-08-29T01:16:00.716Z,90.10
2017-08-29T01:18:29.032Z,90.00
2017-08-29T01:20:57.373Z,90.00
2017-08-29T01:23:25.697Z,90.00
2017-08-29T01:25:54.036Z,90.00
2017-08-29T01:28:22.352Z,90.00
2017-08-29T01:30:50.703Z,90.00
2017-08-29T01:33:19.026Z,90.10
2017-08-29T01:35:47.347Z,90.10
2017-08-29T01:38:15.683Z,90.00
2017-08-29T01:40:44.010Z,90.10
2017-08-29T01:43:12.349Z,90.10
2017-08-29T01:45:40.662Z,90.10
2017-08-29T01:48:09.005Z,90.10
2017-08-29T01:50:37.324Z,90.00
2017-08-29T01:53:05.664Z,90.00
2017-08-29T01:55:33.213Z,90.00
2017-08-29T01:58:01.555Z,90.10
2017-08-29T02:00:29.879Z,90.00
2017-08-29T02:02:58.216Z,90.00
2017-08-29T02:05:26.539Z,90.00
2017-08-29T02:07:54.891Z,90.10
2017-08-29T02:10:23.221Z,90.10
2017-08-29T02:12:51.540Z,90.00
2017-08-29T02:15:19.884Z,90.10
2017-08-29T02:17:48.216Z,90.20
2017-08-29T02:20:16.554Z,90.20
2017-08-29T02:22:44.878Z,90.20
2017-08-29T02:25:13.219Z,90.20
2017-08-29T02:27:41.537Z,90.20
2017-08-29T02:30:09.875Z,90.20
2017-08-29T02:32:38.192Z,90.30
2017-08-29T02:35:06.539Z,90.30
2017-08-29T02:37:34.869Z,90.20
2017-08-29T02:40:03.217Z,90.20
2017-08-29T02:42:31.540Z,90.20
2017-08-29T02:44:59.884Z,90.30
2017-08-29T02:47:28.205Z,90.30
2017-08-29T02:49:56.551Z,90.40
2017-08-29T02:52:24.878Z,90.40
2017-08-29T02:54:53.215Z,90.30
2017-08-29T02:57:21.533Z,90.30
2017-08-29T02:59:49.881Z,90.20
2017-08-29T03:02:18.203Z,90.20
2017-08-29T03:04:46.559Z,90.20
2017-08-29T03:07:14.880Z,90.20
2017-08-29T03:09:43.200Z,90.20
2017-08-29T03:12:11.540Z,90.30
2017-08-29T03:14:39.860Z,90.30
2017-08-29T03:17:08.359Z,90.40
2017-08-29T03:19:35.916Z,90.30
2017-08-29T03:22:04.256Z,90.30
2017-08-29T03:24:32.574Z,90.20
2017-08-29T03:27:00.927Z,90.20
2017-08-29T03:29:29.246Z,90.20
2017-08-29T03:31:57.591Z,90.10
2017-08-29T03:34:25.908Z,90.50
2017-08-29T03:36:54.250Z,90.20
2017-08-29T03:39:22.575Z,90.30
2017-08-29T03:41:50.914Z,90.20
2017-08-29T03:44:18.473Z,90.20
2017-08-29T03:46:46.791Z,90.20
2017-08-29T03:49:15.139Z,90.00
2017-08-29T03:51:43.464Z,90.20
2017-08-29T03:54:11.802Z,90.30
2017-08-29T03:56:40.117Z,90.30
2017-08-29T03:59:08.459Z,90.30
2017-08-29T04:01:36.791Z,90.40
2017-08-29T04:04:05.127Z,90.40
2017-08-29T04:06:33.454Z,90.40
2017-08-29T04:09:01.788Z,90.40
2017-08-29T04:11:30.107Z,90.40
2017-08-29T04:13:58.443Z,90.40
2017-08-29T04:16:26.760Z,90.30
2017-08-29T04:18:55.113Z,90.30
2017-08-29T04:21:23.444Z,90.30
2017-08-29T04:23:51.763Z,90.20
2017-08-29T04:26:20.100Z,90.40
2017-08-29T04:28:48.421Z,90.20
2017-08-29T04:31:16.758Z,90.10
2017-08-29T04:33:45.080Z,90.20
2017-08-29T04:36:13.419Z,90.20
2017-08-29T04:38:41.740Z,90.20
2017-08-29T04:41:10.091Z,90.20
2017-08-29T04:43:38.407Z,90.20
2017-08-29T04:46:06.758Z,90.20
2017-08-29T04:48:35.083Z,90.20
2017-08-29T04:51:03.420Z,90.20
2017-08-29T04:53:31.739Z,90.20
2017-08-29T04:56:00.055Z,90.10
2017-08-29T04:58:28.394Z,90.10
2017-08-29T05:00:56.720Z,90.10
2017-08-29T05:03:25.078Z,90.10
2017-08-29T05:05:53.397Z,90.10
2017-08-29T05:08:21.737Z,90.00
2017-08-29T05:10:50.071Z,90.00
2017-08-29T05:13:18.415Z,90.10
2017-08-29T05:15:46.732Z,90.00
2017-08-29T05:18:15.071Z,90.00
2017-08-29T05:20:43.384Z,89.70
2017-08-29T05:23:11.724Z,89.50
2017-08-29T05:25:40.040Z,89.10
2017-08-29T05:28:08.391Z,88.90
2017-08-29T05:30:36.699Z,88.60
2017-08-29T05:33:05.020Z,88.50
2017-08-29T05:35:33.362Z,89.30
2017-08-29T05:38:01.675Z,88.20
2017-08-29T05:40:30.023Z,88.10
2017-08-29T05:42:58.343Z,87.80
2017-08-29T05:45:26.678Z,87.90
2017-08-29T05:47:54.990Z,87.70
2017-08-29T05:50:23.322Z,87.50
2017-08-29T05:52:51.641Z,87.30
2017-08-29T05:55:19.971Z,87.20
2017-08-29T05:57:48.285Z,86.90
2017-08-29T06:00:16.608Z,86.60
2017-08-29T06:02:44.960Z,86.40
2017-08-29T06:05:13.272Z,86.20
2017-08-29T06:07:41.611Z,86.10
2017-08-29T06:10:09.923Z,85.70
2017-08-29T06:12:38.259Z,85.40
2017-08-29T06:15:06.566Z,85.10
2017-08-29T06:17:34.904Z,84.80
2017-08-29T06:20:03.217Z,84.50
2017-08-29T06:22:31.551Z,84.20
2017-08-29T06:24:59.866Z,83.90
2017-08-29T06:27:28.191Z,83.80
2017-08-29T06:29:56.505Z,83.70
2017-08-29T06:32:24.851Z,83.60
2017-08-29T06:34:53.158Z,83.30
2017-08-29T06:37:21.480Z,82.80
2017-08-29T06:39:49.815Z,82.50
2017-08-29T06:42:18.128Z,82.40
2017-08-29T06:44:46.470Z,82.50
2017-08-29T06:47:14.780Z,82.30
2017-08-29T06:49:43.112Z,81.90
2017-08-29T06:52:11.444Z,81.60
2017-08-29T06:54:39.787Z,81.00
2017-08-29T06:57:08.105Z,80.50
2017-08-29T06:59:36.445Z,79.90
2017-08-29T07:02:04.757Z,79.70
2017-08-29T07:04:32.332Z,79.70
2017-08-29T07:07:00.644Z,78.90
2017-08-29T07:09:28.970Z,78.70
2017-08-29T07:11:57.284Z,78.40
2017-08-29T07:14:25.630Z,78.80
2017-08-29T07:16:53.956Z,77.40
2017-08-29T07:19:22.267Z,76.80
2017-08-29T07:21:50.622Z,76.50
2017-08-29T07:24:18.936Z,75.60
2017-08-29T07:26:47.273Z,75.30
2017-08-29T07:29:14.824Z,75.30
2017-08-29T07:31:43.159Z,73.90
2017-08-29T07:34:11.476Z,73.60
2017-08-29T07:36:39.039Z,73.60
2017-08-29T07:39:07.353Z,72.20
2017-08-29T07:41:35.687Z,71.40
2017-08-29T07:44:03.999Z,71.90
2017-08-29T07:46:32.330Z,71.10
2017-08-29T07:49:00.643Z,70.10
2017-08-29T07:51:28.986Z,69.40
2017-08-29T07:53:57.311Z,69.40
2017-08-29T07:56:25.659Z,69.00
2017-08-29T07:58:53.971Z,69.20
2017-08-29T08:01:22.288Z,68.70
2017-08-29T08:03:50.634Z,68.40
2017-08-29T08:06:18.952Z,68.20
2017-08-29T08:08:47.295Z,68.30
2017-08-29T08:11:15.680Z,68.50
2017-08-29T08:13:44.033Z,68.10
2017-08-29T08:16:12.363Z,67.40
2017-08-29T08:18:40.708Z,66.30
2017-08-29T08:21:09.031Z,66.10
2017-08-29T08:23:37.373Z,65.50
2017-08-29T08:26:05.696Z,65.50
2017-08-29T08:28:34.028Z,66.00
2017-08-29T08:31:02.343Z,65.40
2017-08-29T08:33:29.915Z,65.40
2017-08-29T08:35:58.224Z,64.00
2017-08-29T08:38:26.570Z,64.00
2017-08-29T08:40:54.883Z,63.70
2017-08-29T08:43:23.215Z,62.40
2017-08-29T08:45:51.528Z,61.40
2017-08-29T08:48:19.872Z,60.30
2017-08-29T08:50:48.187Z,59.70
2017-08-29T08:53:16.539Z,59.30
2017-08-29T08:55:44.852Z,59.20
2017-08-29T08:58:13.176Z,58.40
2017-08-29T09:00:40.750Z,58.40
2017-08-29T09:03:09.070Z,55.50
2017-08-29T09:05:37.411Z,55.70
2017-08-29T09:08:05.727Z,56.20
2017-08-29T09:10:33.299Z,56.30
2017-08-29T09:13:01.612Z,55.10
2017-08-29T09:15:29.946Z,54.80
2017-08-29T09:17:58.259Z,55.00
2017-08-29T09:20:26.595Z,54.50
2017-08-29T09:22:54.910Z,53.40
2017-08-29T09:25:23.251Z,53.80
2017-08-29T09:27:51.568Z,53.80
2017-08-29T09:30:19.906Z,52.80
2017-08-29T09:32:47.456Z,52.70
2017-08-29T09:35:15.812Z,49.40
2017-08-29T09:37:44.176Z,46.90
2017-08-29T09:40:12.487Z,47.20
2017-08-29T09:42:40.863Z,48.00
2017-08-29T09:45:09.188Z,47.60
2017-08-29T09:47:37.523Z,47.00
2017-08-29T09:50:05.075Z,47.00
2017-08-29T09:52:33.448Z,47.30
2017-08-29T09:55:01.769Z,48.00
2017-08-29T09:57:30.165Z,47.60
2017-08-29T09:59:58.480Z,46.10
2017-08-29T10:02:26.819Z,45.70
2017-08-29T10:04:54.395Z,45.60
2017-08-29T10:07:22.732Z,46.30
2017-08-29T10:09:51.071Z,43.60
2017-08-29T10:12:19.701Z,42.80
2017-08-29T10:14:48.012Z,43.40
2017-08-29T10:17:16.362Z,42.60
2017-08-29T10:19:44.678Z,41.70
2017-08-29T10:22:12.992Z,42.30
2017-08-29T10:24:41.335Z,41.20
2017-08-29T10:27:09.656Z,41.10
2017-08-29T10:29:37.225Z,41.10
2017-08-29T10:32:05.547Z,41.10
2017-08-29T10:34:33.885Z,41.20
2017-08-29T10:37:02.202Z,40.70
2017-08-29T10:39:30.707Z,41.90
2017-08-29T10:41:59.259Z,41.80
2017-08-29T10:44:27.595Z,41.10
2017-08-29T10:46:56.181Z,40.90
2017-08-29T10:49:24.523Z,41.30
2017-08-29T10:51:52.854Z,40.50
2017-08-29T10:54:21.207Z,39.50
2017-08-29T10:56:49.515Z,38.70
2017-08-29T10:59:17.828Z,39.20
2017-08-29T11:01:46.179Z,39.40
2017-08-29T11:04:14.495Z,39.40
2017-08-29T11:06:42.823Z,39.70
2017-08-29T11:09:11.140Z,40.40
2017-08-29T11:11:39.483Z,40.30
2017-08-29T11:14:07.799Z,38.10
2017-08-29T11:16:36.129Z,36.70
2017-08-29T11:19:04.440Z,37.00
2017-08-29T11:21:32.779Z,37.30
2017-08-29T11:24:01.095Z,38.20
2017-08-29T11:26:29.436Z,38.90
2017-08-29T11:28:57.748Z,38.70
2017-08-29T11:31:26.084Z,40.00
2017-08-29T11:33:54.392Z,39.30
2017-08-29T11:36:22.727Z,38.10
2017-08-29T11:38:51.073Z,38.10
2017-08-29T11:41:19.391Z,38.70
2017-08-29T11:43:47.747Z,38.60
2017-08-29T11:46:16.068Z,37.40
2017-08-29T11:48:44.422Z,37.10
2017-08-29T11:51:12.740Z,38.50
2017-08-29T11:53:41.080Z,37.30
2017-08-29T11:56:09.412Z,37.20
2017-08-29T11:58:37.762Z,37.40
2017-08-29T12:01:06.622Z,36.90
2017-08-29T12:03:34.971Z,37.20
2017-08-29T12:06:03.299Z,37.50
2017-08-29T12:08:31.618Z,37.00
2017-08-29T12:10:59.954Z,36.60
2017-08-29T12:13:28.273Z,36.50
2017-08-29T12:15:56.603Z,36.70
2017-08-29T12:18:24.920Z,36.60
2017-08-29T12:20:53.268Z,36.90
2017-08-29T12:23:21.579Z,37.10
2017-08-29T12:25:49.958Z,36.60
2017-08-29T12:28:18.273Z,38.00
2017-08-29T12:30:46.611Z,36.90
2017-08-29T12:33:14.926Z,38.00
2017-08-29T12:35:43.263Z,37.00
2017-08-29T12:38:11.595Z,36.80
2017-08-29T12:40:39.936Z,36.80
2017-08-29T12:43:08.255Z,36.80
2017-08-29T12:45:36.600Z,35.70
2017-08-29T12:48:04.907Z,36.00
2017-08-29T12:50:33.222Z,35.20
2017-08-29T12:53:01.550Z,34.80
2017-08-29T12:55:29.871Z,35.80
2017-08-29T12:57:58.264Z,36.00
2017-08-29T13:00:26.576Z,35.50
2017-08-29T13:02:54.912Z,34.40
2017-08-29T13:05:23.224Z,34.50
2017-08-29T13:07:51.561Z,34.70
2017-08-29T13:10:20.856Z,35.00
2017-08-29T13:12:49.196Z,34.90
2017-08-29T13:15:17.516Z,33.80
2017-08-29T13:17:45.852Z,33.60
2017-08-29T13:20:14.208Z,34.10
2017-08-29T13:22:42.564Z,33.70
2017-08-29T13:25:10.871Z,34.10
2017-08-29T13:27:39.195Z,33.70
2017-08-29T13:30:07.527Z,34.30
2017-08-29T13:32:35.066Z,34.30
2017-08-29T13:35:03.404Z,34.40
2017-08-29T13:37:31.711Z,33.90
2017-08-29T13:40:00.040Z,34.50
2017-08-29T13:42:28.351Z,33.60
2017-08-29T13:44:56.687Z,33.90
2017-08-29T13:47:24.999Z,33.30
2017-08-29T13:49:53.339Z,32.30
2017-08-29T13:52:21.651Z,31.30
2017-08-29T13:54:49.978Z,31.60
2017-08-29T13:57:18.299Z,32.80
2017-08-29T13:59:46.631Z,32.00
2017-08-29T14:02:14.962Z,31.10
2017-08-29T14:04:43.273Z,31.40
2017-08-29T14:07:11.601Z,30.70
2017-08-29T14:09:39.907Z,31.20
2017-08-29T14:12:08.240Z,31.70
2017-08-29T14:14:36.560Z,31.50
2017-08-29T14:17:04.892Z,32.20
2017-08-29T14:19:33.205Z,32.10
2017-08-29T14:22:01.532Z,31.40
2017-08-29T14:24:29.855Z,31.20
2017-08-29T14:26:58.196Z,31.00
2017-08-29T14:29:26.506Z,32.40
2017-08-29T14:31:54.861Z,33.00
2017-08-29T14:34:23.177Z,33.70
2017-08-29T14:36:51.487Z,33.10
2017-08-29T14:39:19.848Z,32.80
2017-08-29T14:41:48.195Z,32.90
2017-08-29T14:44:16.528Z,33.50
2017-08-29T14:46:56.579Z,33.50
2017-08-29T14:49:24.921Z,33.10
2017-08-29T14:51:53.241Z,32.70
2017-08-29T14:54:21.581Z,33.10
2017-08-29T14:56:49.896Z,33.60
2017-08-29T14:59:18.234Z,34.10
2017-08-29T15:01:46.555Z,34.40
2017-08-29T15:04:14.891Z,33.60
2017-08-29T15:06:43.198Z,32.80
2017-08-29T15:09:11.549Z,32.90
2017-08-29T15:11:39.860Z,33.70
2017-08-29T15:14:08.172Z,33.90
2017-08-29T15:16:36.512Z,32.30
2017-08-29T15:19:04.820Z,31.70
2017-08-29T15:21:33.157Z,32.80
2017-08-29T15:24:01.470Z,32.50
2017-08-29T15:26:29.794Z,32.60
2017-08-29T15:28:58.103Z,33.00
2017-08-29T15:31:26.439Z,32.80
2017-08-29T15:33:54.752Z,33.00
2017-08-29T15:36:23.101Z,33.00
2017-08-29T15:38:51.409Z,32.20
2017-08-29T15:41:19.761Z,31.50
2017-08-29T15:43:48.076Z,31.60
2017-08-29T15:46:16.383Z,31.70
2017-08-29T15:48:44.715Z,31.60
2017-08-29T15:51:13.032Z,33.10
2017-08-29T15:53:41.360Z,33.20
2017-08-29T15:56:09.677Z,32.90
2017-08-29T15:58:38.003Z,32.40
2017-08-29T16:01:06.315Z,32.40
2017-08-29T16:03:34.652Z,33.60
2017-08-29T16:06:02.964Z,33.30
2017-08-29T16:08:31.296Z,32.70
2017-08-29T16:10:59.617Z,32.60
2017-08-29T16:13:27.951Z,32.80
2017-08-29T16:15:56.263Z,32.70
2017-08-29T16:18:24.600Z,33.20
2017-08-29T16:20:52.964Z,33.70
2017-08-29T16:23:21.274Z,33.90
2017-08-29T16:25:49.610Z,33.50
2017-08-29T16:28:17.918Z,33.10
2017-08-29T16:30:46.251Z,33.70
2017-08-29T16:33:13.805Z,33.70
2017-08-29T16:35:42.135Z,34.70
2017-08-29T16:38:10.440Z,34.50
2017-08-29T16:40:38.808Z,35.20
2017-08-29T16:43:07.115Z,36.70
2017-08-29T16:45:35.450Z,37.70
2017-08-29T16:48:03.756Z,38.80
2017-08-29T16:50:32.090Z,39.30
2017-08-29T16:52:59.640Z,39.30
2017-08-29T16:55:27.977Z,39.30
2017-08-29T16:57:56.283Z,39.30
2017-08-29T17:00:24.615Z,39.80
2017-08-29T17:02:52.942Z,40.70
2017-08-29T17:05:21.281Z,41.10
2017-08-29T17:07:49.591Z,41.40
2017-08-29T17:10:17.902Z,41.50
2017-08-29T17:12:46.262Z,41.10
2017-08-29T17:15:14.616Z,40.60
2017-08-29T17:17:42.992Z,40.00
2017-08-29T17:20:11.340Z,39.70
2017-08-29T17:22:39.675Z,39.70
2017-08-29T17:25:08.031Z,39.70
2017-08-29T17:27:36.368Z,40.00
2017-08-29T17:30:04.699Z,40.30
2017-08-29T17:32:33.023Z,40.60
2017-08-29T17:35:00.582Z,40.60
2017-08-29T17:37:28.917Z,41.70
2017-08-29T17:39:57.227Z,42.30
2017-08-29T17:42:25.562Z,43.00
2017-08-29T17:44:53.888Z,44.20
2017-08-29T17:47:22.231Z,45.60
2017-08-29T17:49:50.547Z,47.00
2017-08-29T17:52:18.855Z,48.30
2017-08-29T17:54:47.332Z,49.30
2017-08-29T17:57:15.639Z,50.20
2017-08-29T17:59:43.971Z,51.00
2017-08-29T18:02:12.279Z,51.80
2017-08-29T18:04:40.617Z,52.80
2017-08-29T18:07:08.934Z,53.60
2017-08-29T18:09:37.275Z,54.20
2017-08-29T18:12:05.601Z,55.00
2017-08-29T18:14:33.936Z,55.80
2017-08-29T18:17:02.265Z,56.60
2017-08-29T18:19:30.643Z,57.30
2017-08-29T18:21:58.961Z,57.80
2017-08-29T18:24:26.551Z,57.70
2017-08-29T18:26:54.979Z,58.80
2017-08-29T18:29:23.295Z,59.40
2017-08-29T18:31:51.651Z,59.80
2017-08-29T18:34:19.971Z,60.70
2017-08-29T18:36:48.312Z,61.50
2017-08-29T18:39:16.623Z,62.30
2017-08-29T18:41:45.069Z,63.10
2017-08-29T18:44:13.393Z,64.00
2017-08-29T18:46:41.727Z,64.90
2017-08-29T18:49:10.091Z,65.50
2017-08-29T18:51:38.440Z,66.20
2017-08-29T18:54:06.813Z,66.60
2017-08-29T18:56:35.151Z,67.30
2017-08-29T18:59:03.523Z,68.00
2017-08-29T19:01:31.880Z,68.40
2017-08-29T19:04:00.209Z,69.00
2017-08-29T19:06:28.630Z,69.20
2017-08-29T19:08:56.944Z,69.60
2017-08-29T19:11:25.281Z,70.00
2017-08-29T19:13:53.671Z,70.40
2017-08-29T19:16:26.219Z,70.90
2017-08-29T19:18:54.564Z,71.20
2017-08-29T19:21:22.923Z,71.70
2017-08-29T19:23:51.339Z,72.10
2017-08-29T19:26:19.657Z,72.40
2017-08-29T19:28:48.002Z,72.50
2017-08-29T19:31:16.324Z,72.90
2017-08-29T19:33:44.682Z,73.10
2017-08-29T19:36:13.083Z,73.50
2017-08-29T19:38:41.589Z,74.00
2017-08-29T19:41:09.909Z,75.10
2017-08-29T19:43:38.262Z,74.40
2017-08-29T19:46:06.578Z,74.70
2017-08-29T19:48:34.932Z,75.10
2017-08-29T19:51:03.251Z,75.40
2017-08-29T19:53:30.832Z,75.30
2017-08-29T19:55:59.147Z,75.90
2017-08-29T19:58:27.502Z,76.00
2017-08-29T20:00:55.877Z,76.10
2017-08-29T20:03:24.297Z,76.20
2017-08-29T20:05:52.623Z,76.50
2017-08-29T20:08:20.967Z,76.70
2017-08-29T20:10:49.279Z,76.80
2017-08-29T20:13:17.619Z,77.00
2017-08-29T20:15:45.939Z,76.90
2017-08-29T20:18:14.288Z,77.20
2017-08-29T20:20:42.606Z,77.60
2017-08-29T20:23:11.084Z,77.80
2017-08-29T20:25:39.408Z,77.80
2017-08-29T20:28:07.798Z,78.00
2017-08-29T20:30:36.138Z,78.20
2017-08-29T20:33:04.508Z,78.60
2017-08-29T20:35:32.843Z,78.60
2017-08-29T20:38:01.207Z,78.70
2017-08-29T20:40:29.537Z,78.80
2017-08-29T20:42:57.895Z,79.00
2017-08-29T20:45:26.220Z,80.20
2017-08-29T20:47:54.575Z,79.40
2017-08-29T20:50:22.900Z,79.50
2017-08-29T20:52:51.308Z,79.60
2017-08-29T20:55:19.643Z,80.00
2017-08-29T20:57:47.988Z,80.00
2017-08-29T21:00:16.352Z,80.00
2017-08-29T21:02:44.722Z,80.00
2017-08-29T21:05:13.149Z,80.00
2017-08-29T21:07:41.514Z,80.30
2017-08-29T21:10:09.834Z,80.40
2017-08-29T21:12:38.203Z,80.50
2017-08-29T21:15:06.574Z,80.70
2017-08-29T21:17:34.899Z,80.70
2017-08-29T21:20:03.246Z,81.30
2017-08-29T21:22:31.559Z,80.20
2017-08-29T21:24:59.919Z,80.40
2017-08-29T21:27:28.391Z,80.40
2017-08-29T21:29:56.767Z,80.70
2017-08-29T21:32:25.097Z,80.80
2017-08-29T21:34:53.484Z,81.00
2017-08-29T21:37:21.797Z,80.90
2017-08-29T21:39:50.163Z,80.90
2017-08-29T21:42:18.479Z,80.90
2017-08-29T21:44:46.834Z,81.00
2017-08-29T21:47:15.159Z,81.10
2017-08-29T21:49:42.751Z,81.10
2017-08-29T21:52:11.072Z,81.30
2017-08-29T21:54:39.413Z,81.60
2017-08-29T21:57:07.735Z,81.80
2017-08-29T21:59:36.078Z,82.00
2017-08-29T22:02:04.401Z,82.00
2017-08-29T22:04:32.744Z,82.00
2017-08-29T22:07:01.060Z,82.10
2017-08-29T22:09:29.403Z,82.10
2017-08-29T22:11:57.718Z,82.10
2017-08-29T22:14:26.068Z,82.00
2017-08-29T22:16:54.392Z,82.00
2017-08-29T22:19:22.736Z,82.20
2017-08-29T22:21:51.047Z,82.40
2017-08-29T22:24:19.395Z,82.50
2017-08-29T22:26:47.716Z,82.80
2017-08-29T22:29:16.063Z,82.90
2017-08-29T22:31:44.375Z,82.80
2017-08-29T22:34:12.715Z,82.90
2017-08-29T22:36:41.030Z,82.90
2017-08-29T22:39:09.379Z,83.00
2017-08-29T22:41:37.695Z,83.10
2017-08-29T22:44:06.043Z,84.10
2017-08-29T22:46:34.360Z,83.30
2017-08-29T22:49:02.698Z,83.30
2017-08-29T22:51:31.065Z,83.30
2017-08-29T22:53:59.413Z,83.30
2017-08-29T22:56:27.731Z,83.20
2017-08-29T22:58:56.085Z,83.20
2017-08-29T23:01:24.396Z,83.40
2017-08-29T23:03:51.944Z,83.40
2017-08-29T23:06:20.295Z,83.70
2017-08-29T23:08:48.607Z,83.60
2017-08-29T23:11:16.949Z,83.80
2017-08-29T23:13:45.263Z,83.90
2017-08-29T23:16:13.650Z,83.90
2017-08-29T23:18:41.967Z,83.70
2017-08-29T23:21:10.312Z,83.80
2017-08-29T23:23:38.627Z,84.80
2017-08-29T23:26:06.972Z,84.10
2017-08-29T23:28:35.302Z,84.10
2017-08-29T23:31:03.650Z,84.30
2017-08-29T23:33:32.987Z,84.40
2017-08-29T23:36:01.335Z,84.40
2017-08-29T23:38:29.663Z,84.60
2017-08-29T23:40:58.012Z,84.70
2017-08-29T23:43:26.328Z,84.90
2017-08-29T23:45:54.671Z,85.00
2017-08-29T23:48:22.984Z,85.00
2017-08-29T23:50:51.327Z,85.00
2017-08-29T23:53:18.875Z,85.00
2017-08-29T23:55:47.219Z,85.00
2017-08-29T23:58:15.542Z,85.00
